Bill Jr — WCO6976 — position and weather

sailwx.info

Track history (hours):
 
Tides and Currents Weather Stations Pressure Air Temp Water Temp Dewpoint Dewpoint Depression Visibility Wind Speed Wind Dir Waves Ship Positions

Bill Jr

Owner: DAWSON VESSELS INC, MOBILE, AL. More information available from US FCC via Universal Licensing System and Coast Guard Vessel Documentation Center.

Last reported at 2018-May-23 17:06 UTC. Time now 2018-May-26 12:03 UTC.
Position N 30°26' W 086°21'.

Length 21 m.

MMSI: 366976750.

Date/timePositionNaut miles runAvg speedWind from/ knotsBaromVisibWave heightAir tempDewpointWater temp
2018-May-23 17:06N 30°26' W 086°21'0 3.8
2018-May-23 16:59N 30°26' W 086°22'2 3.7
2018-May-23 16:30N 30°26' W 086°24'2 3.7
2018-May-23 16:00N 30°26' W 086°26'2 3.8
2018-May-23 15:30N 30°26' W 086°28'14 3.2
2018-May-23 10:58N 30°24' W 086°45'2 3.2
2018-May-23 10:29N 30°24' W 086°46'1 2.9
2018-May-23 10:00N 30°24' W 086°48'1 2.5
2018-May-23 09:30N 30°24' W 086°49'2 3.3
2018-May-23 08:58N 30°24' W 086°52'  
Track history (hours):
 
Tides and Currents Weather Stations Pressure Air Temp Water Temp Dewpoint Dewpoint Depression Visibility Wind Speed Wind Dir Waves Ship Positions

Bill Jr

Owner: DAWSON VESSELS INC, MOBILE, AL. More information available from US FCC via Universal Licensing System and Coast Guard Vessel Documentation Center.

Last reported at 2018-May-23 17:06 UTC. Time now 2018-May-26 12:03 UTC.
Position N 30°26' W 086°21'.

Length 21 m.

MMSI: 366976750.

Date/timePositionNaut miles runAvg speedWind from/ knotsBaromVisibWave heightAir tempDewpointWater temp
2018-May-23 17:06N 30°26' W 086°21'0 3.8
2018-May-23 16:59N 30°26' W 086°22'2 3.7
2018-May-23 16:30N 30°26' W 086°24'2 3.7
2018-May-23 16:00N 30°26' W 086°26'2 3.8
2018-May-23 15:30N 30°26' W 086°28'14 3.2
2018-May-23 10:58N 30°24' W 086°45'2 3.2
2018-May-23 10:29N 30°24' W 086°46'1 2.9
2018-May-23 10:00N 30°24' W 086°48'1 2.5
2018-May-23 09:30N 30°24' W 086°49'2 3.3
2018-May-23 08:58N 30°24' W 086°52'  

Dump ship's entire track history